Time;durP1;ratioP1;P1;durP2;ratioP2;P2;SDS_P1;SDS_P2;PMS_P1;PMS_P2;Temp;Humidity;BMP_temperature;BMP_pressure;BME280_temperature;BME280_humidity;BME280_pressure;Samples;Min_cycle;Max_cycle;Signal;HPM_P1;HPM_P2
2022/02/07 00:00:40;;;;;;;0.30;0.10;;;;;;;;;;4987010;28;20026;-75
2022/02/07 00:03:29;;;;;;;0.00;0.00;;;;;;;;;;4981002;28;20102;-77
2022/02/07 00:05:54;;;;;;;0.00;0.00;;;;;;;;;;4975299;28;20472;-74
2022/02/07 00:08:20;;;;;;;0.10;0.10;;;;;;;;;;4983159;28;20038;-74
2022/02/07 00:10:45;;;;;;;1.75;0.10;;;;;;;;;;4986900;28;20030;-73
2022/02/07 00:13:11;;;;;;;1.17;0.20;;;;;;;;;;4987789;28;20053;-74
2022/02/07 00:15:36;;;;;;;0.47;0.10;;;;;;;;;;4987300;28;20026;-74
2022/02/07 00:18:02;;;;;;;1.55;0.57;;;;;;;;;;4988442;28;20548;-75
2022/02/07 00:20:27;;;;;;;0.35;0.10;;;;;;;;;;4987215;28;20037;-76
2022/02/07 00:22:52;;;;;;;0.20;0.20;;;;;;;;;;4988359;28;20053;-73
2022/02/07 00:25:19;;;;;;;0.10;0.10;;;;;;;;;;4987610;28;20683;-75
2022/02/07 00:27:44;;;;;;;0.20;0.20;;;;;;;;;;4998098;28;20077;-77
2022/02/07 00:30:10;;;;;;;1.48;0.20;;;;;;;;;;4991046;28;20041;-74
2022/02/07 00:32:36;;;;;;;0.20;0.15;;;;;;;;;;4991509;28;20084;-75
2022/02/07 00:35:02;;;;;;;0.20;0.20;;;;;;;;;;4988658;28;20034;-75
2022/02/07 00:37:30;;;;;;;0.55;0.30;;;;;;;;;;5010765;28;20053;-74
2022/02/07 00:40:28;;;;;;;0.13;0.08;;;;;;;;;;5012238;28;20076;-75
2022/02/07 00:42:57;;;;;;;0.30;0.20;;;;;;;;;;5004744;28;20087;-75
2022/02/07 00:45:37;;;;;;;0.32;0.20;;;;;;;;;;5010204;28;20026;-75
2022/02/07 00:48:06;;;;;;;0.10;0.10;;;;;;;;;;5006030;28;20117;-75
2022/02/07 00:50:32;;;;;;;0.10;0.10;;;;;;;;;;5010823;28;20034;-75
2022/02/07 00:52:58;;;;;;;0.65;0.30;;;;;;;;;;5010793;28;20523;-74
2022/02/07 00:55:23;;;;;;;0.10;0.10;;;;;;;;;;5008214;28;20061;-74
2022/02/07 00:57:48;;;;;;;0.00;0.00;;;;;;;;;;5008871;28;20016;-75
2022/02/07 01:00:14;;;;;;;0.38;0.20;;;;;;;;;;5008725;28;20030;-76
2022/02/07 01:02:39;;;;;;;0.20;0.10;;;;;;;;;;5008124;28;20514;-76
2022/02/07 01:05:05;;;;;;;0.32;0.20;;;;;;;;;;5008891;28;20018;-74
2022/02/07 01:07:31;;;;;;;0.10;0.10;;;;;;;;;;5007970;28;20408;-75
2022/02/07 01:09:57;;;;;;;0.25;0.20;;;;;;;;;;5006674;28;20030;-73
2022/02/07 01:12:40;;;;;;;0.30;0.28;;;;;;;;;;4998496;28;20045;-73
2022/02/07 01:23:10;;;;;;;0.35;0.30;;;;;;;;;;5011442;28;20022;-74
2022/02/07 01:50:29;;;;;;;0.20;0.20;;;;;;;;;;5012276;28;20061;-75
2022/02/07 01:53:18;;;;;;;0.20;0.20;;;;;;;;;;5011181;28;20297;-74
2022/02/07 01:55:48;;;;;;;0.10;0.10;;;;;;;;;;5009792;28;20092;-76
2022/02/07 01:58:13;;;;;;;0.10;0.10;;;;;;;;;;5008432;28;20034;-74
2022/02/07 02:00:39;;;;;;;0.20;0.20;;;;;;;;;;5003823;28;20019;-74
2022/02/07 02:03:05;;;;;;;0.10;0.10;;;;;;;;;;5010765;28;20037;-74
2022/02/07 02:05:39;;;;;;;0.10;0.10;;;;;;;;;;5011193;28;20030;-74
2022/02/07 02:08:05;;;;;;;0.15;0.10;;;;;;;;;;5010429;28;20114;-75
2022/02/07 02:10:30;;;;;;;1.00;0.10;;;;;;;;;;5010769;28;20018;-75
2022/02/07 02:13:04;;;;;;;0.10;0.10;;;;;;;;;;5010379;28;20026;-76
2022/02/07 02:15:53;;;;;;;0.10;0.10;;;;;;;;;;5009400;28;20041;-74
2022/02/07 02:21:50;;;;;;;0.20;0.20;;;;;;;;;;5010238;28;20108;-74
2022/02/07 02:45:34;;;;;;;0.45;0.30;;;;;;;;;;5010488;28;20028;-74
2022/02/07 02:48:03;;;;;;;0.17;0.17;;;;;;;;;;5008673;28;20125;-75
2022/02/07 02:50:36;;;;;;;1.65;0.30;;;;;;;;;;5009512;28;20036;-74
2022/02/07 02:53:03;;;;;;;0.25;0.20;;;;;;;;;;5009736;28;20504;-74
2022/02/07 02:55:29;;;;;;;0.22;0.22;;;;;;;;;;5009654;28;20063;-74
2022/02/07 02:57:54;;;;;;;0.20;0.20;;;;;;;;;;5010320;28;20390;-74
2022/02/07 03:00:20;;;;;;;1.05;0.40;;;;;;;;;;5008179;28;20026;-74
2022/02/07 03:02:45;;;;;;;1.00;0.13;;;;;;;;;;5008977;28;20465;-76
2022/02/07 03:05:10;;;;;;;1.33;0.40;;;;;;;;;;5018142;28;20065;-75
2022/02/07 03:07:36;;;;;;;2.28;0.20;;;;;;;;;;5023203;28;20042;-75
2022/02/07 03:10:03;;;;;;;1.13;0.20;;;;;;;;;;5018487;28;20029;-76
2022/02/07 03:12:30;;;;;;;0.47;0.20;;;;;;;;;;5004758;28;20026;-75
2022/02/07 03:15:13;;;;;;;0.40;0.30;;;;;;;;;;5012036;28;20017;-76
2022/02/07 03:17:38;;;;;;;0.20;0.20;;;;;;;;;;5015609;28;20029;-76
2022/02/07 03:20:03;;;;;;;0.65;0.20;;;;;;;;;;5008741;28;20502;-76
2022/02/07 03:22:28;;;;;;;0.30;0.20;;;;;;;;;;5006806;28;20050;-74
2022/02/07 03:24:53;;;;;;;2.28;0.20;;;;;;;;;;5007623;28;20018;-76
2022/02/07 03:27:19;;;;;;;0.15;0.15;;;;;;;;;;5009239;28;20057;-74
2022/02/07 03:29:44;;;;;;;0.40;0.20;;;;;;;;;;5023073;28;20115;-74
2022/02/07 03:32:09;;;;;;;1.35;0.30;;;;;;;;;;5008488;28;20018;-74
2022/02/07 03:34:35;;;;;;;0.20;0.20;;;;;;;;;;5009943;28;20392;-73
2022/02/07 03:37:00;;;;;;;2.03;0.40;;;;;;;;;;5008741;28;20025;-74
2022/02/07 03:39:25;;;;;;;0.38;0.25;;;;;;;;;;5008283;28;20029;-74
2022/02/07 03:41:50;;;;;;;0.40;0.30;;;;;;;;;;5006982;28;20104;-74
2022/02/07 03:44:15;;;;;;;0.50;0.20;;;;;;;;;;5007980;28;20013;-74
2022/02/07 03:46:41;;;;;;;2.05;0.30;;;;;;;;;;5008929;28;20032;-73
2022/02/07 03:49:06;;;;;;;0.47;0.30;;;;;;;;;;5008100;28;20034;-75
2022/02/07 03:51:31;;;;;;;1.30;0.30;;;;;;;;;;5009093;28;20453;-75
2022/02/07 03:53:56;;;;;;;0.43;0.30;;;;;;;;;;5005677;28;20208;-74
2022/02/07 03:56:22;;;;;;;0.43;0.30;;;;;;;;;;5009700;28;20851;-74
2022/02/07 03:58:48;;;;;;;1.00;0.20;;;;;;;;;;5008990;28;20162;-74
2022/02/07 04:01:13;;;;;;;0.82;0.30;;;;;;;;;;5008761;28;20026;-74
2022/02/07 04:03:38;;;;;;;0.38;0.38;;;;;;;;;;5009510;28;20017;-75
2022/02/07 04:06:07;;;;;;;0.82;0.40;;;;;;;;;;5006749;28;20033;-74
2022/02/07 04:08:37;;;;;;;0.85;0.32;;;;;;;;;;5010420;28;20060;-74
2022/02/07 04:13:35;;;;;;;0.60;0.50;;;;;;;;;;5010128;28;20032;-74
2022/02/07 04:16:02;;;;;;;2.15;0.47;;;;;;;;;;5006191;28;20030;-74
2022/02/07 04:18:33;;;;;;;1.02;0.38;;;;;;;;;;5006929;28;20484;-75
2022/02/07 04:21:00;;;;;;;1.45;0.57;;;;;;;;;;5008942;28;20034;-74
2022/02/07 04:23:26;;;;;;;2.00;0.55;;;;;;;;;;5006501;28;20029;-74
2022/02/07 04:25:51;;;;;;;1.00;0.47;;;;;;;;;;5007864;28;20021;-74
2022/02/07 04:28:17;;;;;;;1.10;0.52;;;;;;;;;;5008797;28;20034;-74
2022/02/07 04:30:42;;;;;;;2.42;0.73;;;;;;;;;;5007735;28;20095;-75
2022/02/07 04:33:08;;;;;;;1.25;0.70;;;;;;;;;;5008338;28;20021;-74
2022/02/07 04:35:33;;;;;;;3.13;0.57;;;;;;;;;;5008480;28;20030;-74
2022/02/07 04:37:58;;;;;;;3.60;0.57;;;;;;;;;;5008680;28;20033;-74
2022/02/07 04:40:23;;;;;;;5.90;0.80;;;;;;;;;;5008953;28;20026;-74
2022/02/07 04:42:49;;;;;;;2.65;0.60;;;;;;;;;;5006799;28;20057;-75
2022/02/07 05:01:14;;;;;;;2.22;0.75;;;;;;;;;;5007843;28;20032;-76
2022/02/07 05:03:51;;;;;;;8.82;1.40;;;;;;;;;;5004006;28;20026;-74
2022/02/07 05:14:30;;;;;;;3.63;0.88;;;;;;;;;;5007686;28;20083;-74
2022/02/07 05:16:56;;;;;;;4.45;1.00;;;;;;;;;;5011567;28;20029;-74
2022/02/07 05:19:22;;;;;;;5.75;0.90;;;;;;;;;;5010657;28;20030;-76
2022/02/07 05:21:48;;;;;;;7.18;1.38;;;;;;;;;;5013221;28;20395;-76
2022/02/07 05:24:13;;;;;;;5.22;1.02;;;;;;;;;;5011796;28;20107;-77
2022/02/07 05:26:38;;;;;;;3.60;1.00;;;;;;;;;;5010126;28;20536;-75
2022/02/07 05:29:05;;;;;;;3.03;0.93;;;;;;;;;;5012730;28;20034;-76
2022/02/07 05:31:31;;;;;;;2.20;0.90;;;;;;;;;;5010028;28;20033;-76
2022/02/07 05:33:56;;;;;;;3.17;1.02;;;;;;;;;;5014124;28;20026;-75
2022/02/07 05:36:21;;;;;;;3.55;0.90;;;;;;;;;;5015482;28;20112;-75
2022/02/07 05:38:49;;;;;;;2.33;0.90;;;;;;;;;;5012271;28;20033;-76
2022/02/07 05:41:16;;;;;;;3.50;1.10;;;;;;;;;;5011932;28;20389;-76
2022/02/07 05:43:45;;;;;;;6.85;1.35;;;;;;;;;;5012607;28;20091;-76
2022/02/07 05:46:10;;;;;;;4.72;1.67;;;;;;;;;;5004477;28;20021;-75
2022/02/07 05:48:35;;;;;;;6.10;0.95;;;;;;;;;;5014329;28;20044;-75
2022/02/07 05:51:00;;;;;;;5.35;1.02;;;;;;;;;;5025598;28;20010;-76
2022/02/07 05:53:26;;;;;;;3.22;1.13;;;;;;;;;;5029592;28;20108;-77
2022/02/07 05:55:51;;;;;;;3.72;1.00;;;;;;;;;;5012553;28;20040;-75
2022/02/07 05:58:16;;;;;;;2.63;0.52;;;;;;;;;;5013607;28;20404;-75
2022/02/07 06:00:41;;;;;;;3.08;0.88;;;;;;;;;;5011619;28;20050;-76
2022/02/07 06:03:07;;;;;;;2.55;0.52;;;;;;;;;;5012792;28;20444;-76
2022/02/07 06:05:32;;;;;;;4.30;0.75;;;;;;;;;;5009402;28;20026;-76
2022/02/07 06:07:57;;;;;;;2.15;0.50;;;;;;;;;;5013201;28;20071;-74
2022/02/07 06:10:22;;;;;;;3.53;0.50;;;;;;;;;;5010772;28;20111;-75
2022/02/07 06:12:48;;;;;;;2.78;0.70;;;;;;;;;;5011853;28;20108;-74
2022/02/07 06:15:13;;;;;;;2.45;0.60;;;;;;;;;;5012353;28;20077;-75
2022/02/07 06:17:40;;;;;;;2.03;0.60;;;;;;;;;;5010361;28;20029;-75
2022/02/07 06:20:06;;;;;;;2.53;0.63;;;;;;;;;;5011167;28;20021;-74
2022/02/07 06:22:31;;;;;;;2.17;0.50;;;;;;;;;;5011601;28;20033;-76
2022/02/07 06:24:57;;;;;;;2.47;0.60;;;;;;;;;;5011244;28;20183;-77
2022/02/07 06:27:22;;;;;;;3.13;0.73;;;;;;;;;;4995889;28;20727;-75
2022/02/07 06:29:47;;;;;;;4.00;0.70;;;;;;;;;;5009460;28;20048;-75
2022/02/07 06:32:13;;;;;;;0.80;0.45;;;;;;;;;;5010712;28;20026;-74
2022/02/07 06:34:38;;;;;;;2.05;0.85;;;;;;;;;;5006984;28;20044;-75
2022/02/07 06:37:04;;;;;;;2.75;0.70;;;;;;;;;;5006836;28;20111;-75
2022/02/07 06:39:29;;;;;;;0.68;0.50;;;;;;;;;;5008971;28;20121;-76
2022/02/07 06:41:56;;;;;;;1.00;0.60;;;;;;;;;;5010597;28;20372;-75
2022/02/07 06:44:21;;;;;;;1.48;1.25;;;;;;;;;;5009512;28;20022;-75
2022/02/07 06:46:46;;;;;;;3.13;0.77;;;;;;;;;;5010006;28;20041;-74
2022/02/07 06:49:11;;;;;;;1.27;0.80;;;;;;;;;;5006254;28;20080;-73
2022/02/07 06:51:37;;;;;;;1.98;1.00;;;;;;;;;;5009269;28;20491;-74
2022/02/07 06:54:02;;;;;;;2.05;0.90;;;;;;;;;;5009014;28;20054;-74
2022/02/07 06:56:28;;;;;;;2.45;0.95;;;;;;;;;;5010728;28;20480;-73
2022/02/07 06:58:54;;;;;;;3.97;0.90;;;;;;;;;;5011100;28;20137;-74
2022/02/07 07:01:19;;;;;;;3.00;1.17;;;;;;;;;;5010507;28;20607;-75
2022/02/07 07:03:46;;;;;;;2.20;0.90;;;;;;;;;;5010560;28;20026;-73
2022/02/07 07:06:12;;;;;;;2.58;1.13;;;;;;;;;;5009132;28;20032;-73
2022/02/07 07:08:44;;;;;;;3.92;0.90;;;;;;;;;;5009891;28;20048;-71
2022/02/07 07:11:11;;;;;;;2.78;1.35;;;;;;;;;;5010930;28;20353;-72
2022/02/07 07:13:46;;;;;;;5.38;1.20;;;;;;;;;;5010399;28;20029;-71
2022/02/07 07:16:37;;;;;;;2.47;1.08;;;;;;;;;;5013674;28;20432;-72
2022/02/07 07:19:00;;;;;;;3.80;1.40;;;;;;;;;;5005117;28;20038;-73
2022/02/07 07:21:26;;;;;;;4.88;1.75;;;;;;;;;;5011067;28;20026;-73
2022/02/07 07:23:52;;;;;;;4.40;1.13;;;;;;;;;;5008946;28;20033;-71
2022/02/07 07:26:17;;;;;;;2.53;1.10;;;;;;;;;;5009665;28;20388;-74
2022/02/07 07:28:42;;;;;;;3.13;1.23;;;;;;;;;;5009652;28;20456;-72
2022/02/07 07:31:11;;;;;;;3.83;1.10;;;;;;;;;;5004634;28;20475;-74
2022/02/07 07:33:37;;;;;;;2.63;1.00;;;;;;;;;;5012293;28;20025;-72
2022/02/07 07:36:03;;;;;;;3.38;1.10;;;;;;;;;;5011167;28;20017;-72
2022/02/07 07:38:28;;;;;;;9.52;1.27;;;;;;;;;;5012346;28;20026;-73
2022/02/07 07:40:53;;;;;;;3.90;1.20;;;;;;;;;;5009991;28;20389;-73
2022/02/07 07:43:19;;;;;;;4.40;1.30;;;;;;;;;;5010488;28;20465;-73
2022/02/07 07:45:54;;;;;;;5.40;1.10;;;;;;;;;;5010699;28;20138;-72
2022/02/07 07:48:23;;;;;;;2.55;0.90;;;;;;;;;;5010025;28;20030;-73
2022/02/07 07:50:56;;;;;;;7.83;1.13;;;;;;;;;;5011666;28;20072;-73
2022/02/07 07:53:31;;;;;;;3.92;1.05;;;;;;;;;;5011092;28;20451;-73
2022/02/07 08:03:52;;;;;;;5.82;1.20;;;;;;;;;;5010613;28;20025;-74
2022/02/07 08:06:22;;;;;;;7.90;1.42;;;;;;;;;;5006600;28;20109;-73
2022/02/07 08:09:01;;;;;;;6.45;1.17;;;;;;;;;;5011505;28;20038;-73
2022/02/07 08:11:26;;;;;;;6.70;1.27;;;;;;;;;;5010503;28;20022;-74
2022/02/07 08:13:53;;;;;;;10.77;1.33;;;;;;;;;;5010202;28;20034;-71
2022/02/07 08:16:19;;;;;;;4.05;1.10;;;;;;;;;;5010131;28;20510;-75
2022/02/07 08:18:44;;;;;;;6.07;1.30;;;;;;;;;;5009647;28;20022;-74
2022/02/07 08:21:09;;;;;;;3.85;1.30;;;;;;;;;;5010054;28;20028;-74
2022/02/07 08:23:35;;;;;;;4.55;1.20;;;;;;;;;;5010324;28;20069;-73
2022/02/07 08:26:04;;;;;;;4.72;1.27;;;;;;;;;;5010167;28;20441;-73
2022/02/07 08:28:29;;;;;;;5.35;1.35;;;;;;;;;;5009669;28;20503;-73
2022/02/07 08:30:54;;;;;;;5.97;1.42;;;;;;;;;;5011773;28;20042;-73
2022/02/07 08:33:20;;;;;;;4.70;1.27;;;;;;;;;;5017842;28;20026;-74
2022/02/07 08:35:45;;;;;;;3.55;1.20;;;;;;;;;;5018961;28;20018;-73
2022/02/07 08:38:10;;;;;;;3.67;1.20;;;;;;;;;;5013106;28;20097;-73
2022/02/07 08:40:37;;;;;;;7.03;1.48;;;;;;;;;;5011616;28;20032;-73
2022/02/07 08:43:02;;;;;;;7.78;1.17;;;;;;;;;;5018581;28;20053;-72
2022/02/07 08:45:28;;;;;;;4.45;1.13;;;;;;;;;;5014181;28;20396;-74
2022/02/07 08:47:56;;;;;;;9.38;1.50;;;;;;;;;;5013898;28;20036;-72
2022/02/07 08:50:22;;;;;;;5.97;1.63;;;;;;;;;;5014702;28;20033;-73
2022/02/07 08:52:50;;;;;;;7.13;1.40;;;;;;;;;;5013805;28;20070;-73
2022/02/07 08:55:52;;;;;;;3.20;1.20;;;;;;;;;;5014213;28;20025;-73
2022/02/07 08:58:15;;;;;;;5.85;1.50;;;;;;;;;;5012810;28;20101;-73
2022/02/07 09:01:02;;;;;;;4.95;1.40;;;;;;;;;;5018839;28;20025;-73
2022/02/07 09:03:45;;;;;;;8.15;1.40;;;;;;;;;;5015545;28;20018;-72
2022/02/07 09:06:35;;;;;;;6.32;1.38;;;;;;;;;;5010558;28;20037;-72
2022/02/07 09:11:32;;;;;;;5.85;1.10;;;;;;;;;;5015632;28;20037;-72
2022/02/07 09:14:00;;;;;;;9.05;1.63;;;;;;;;;;5014278;28;20055;-72
2022/02/07 09:16:33;;;;;;;7.15;1.65;;;;;;;;;;5014462;28;20041;-73
2022/02/07 09:18:58;;;;;;;7.70;1.63;;;;;;;;;;5014336;28;20065;-73
2022/02/07 09:21:25;;;;;;;5.47;1.30;;;;;;;;;;5015732;28;20064;-74
2022/02/07 09:23:50;;;;;;;5.72;1.48;;;;;;;;;;5012876;28;20029;-72
2022/02/07 09:26:15;;;;;;;7.63;1.80;;;;;;;;;;5013488;28;20018;-73
2022/02/07 09:28:42;;;;;;;6.90;1.35;;;;;;;;;;5013654;28;20034;-73
2022/02/07 09:31:07;;;;;;;6.50;1.15;;;;;;;;;;5013640;28;20083;-74
2022/02/07 09:33:33;;;;;;;9.52;2.25;;;;;;;;;;5014102;28;20101;-74
2022/02/07 09:35:58;;;;;;;6.15;1.10;;;;;;;;;;5016461;28;20033;-72
2022/02/07 09:38:23;;;;;;;7.80;1.50;;;;;;;;;;5013006;28;20121;-72
2022/02/07 09:40:52;;;;;;;4.72;1.23;;;;;;;;;;5012938;28;20018;-73
2022/02/07 09:43:25;;;;;;;7.97;1.38;;;;;;;;;;5012755;28;20017;-74
2022/02/07 09:45:51;;;;;;;5.28;2.30;;;;;;;;;;5011873;28;20432;-72
2022/02/07 09:48:17;;;;;;;6.60;1.50;;;;;;;;;;5015273;28;20080;-72
2022/02/07 09:50:43;;;;;;;5.90;1.60;;;;;;;;;;5013492;28;20080;-72
2022/02/07 09:53:09;;;;;;;7.28;1.20;;;;;;;;;;5011388;28;20611;-72
2022/02/07 09:55:34;;;;;;;4.38;2.25;;;;;;;;;;5012537;28;20108;-72
2022/02/07 09:57:59;;;;;;;6.93;1.38;;;;;;;;;;5012636;28;20025;-72
2022/02/07 10:00:34;;;;;;;6.57;1.58;;;;;;;;;;5013538;28;20018;-73
2022/02/07 10:03:24;;;;;;;7.97;1.58;;;;;;;;;;5013962;28;20029;-73
2022/02/07 10:06:01;;;;;;;7.40;2.00;;;;;;;;;;5013179;28;20064;-73
2022/02/07 10:08:50;;;;;;;5.07;1.60;;;;;;;;;;5012798;28;20389;-72
2022/02/07 10:11:33;;;;;;;5.97;1.52;;;;;;;;;;5006656;28;20550;-73
2022/02/07 10:14:09;;;;;;;5.30;1.65;;;;;;;;;;5013317;28;20481;-74
2022/02/07 10:16:46;;;;;;;6.22;1.55;;;;;;;;;;5014304;28;20025;-74
2022/02/07 10:38:26;;;;;;;5.78;1.33;;;;;;;;;;4953850;29;20043;-74
2022/02/07 10:41:20;;;;;;;6.07;1.40;;;;;;;;;;4952337;29;20050;-72
2022/02/07 10:46:17;;;;;;;4.97;1.50;;;;;;;;;;4950802;29;20039;-77
2022/02/07 10:48:43;;;;;;;8.80;1.67;;;;;;;;;;4950127;29;20065;-75
2022/02/07 10:51:08;;;;;;;4.60;1.17;;;;;;;;;;4950654;29;20070;-73
2022/02/07 10:53:35;;;;;;;4.50;1.77;;;;;;;;;;4952462;29;20091;-73
2022/02/07 10:56:02;;;;;;;7.72;1.85;;;;;;;;;;4951456;29;20231;-73
2022/02/07 10:58:27;;;;;;;5.72;1.20;;;;;;;;;;4949702;29;20074;-73
2022/02/07 11:00:57;;;;;;;7.20;1.38;;;;;;;;;;4950500;29;20027;-74
2022/02/07 11:03:24;;;;;;;6.95;1.45;;;;;;;;;;4950783;28;20031;-74
2022/02/07 11:05:58;;;;;;;5.63;1.45;;;;;;;;;;4952144;29;20019;-73
2022/02/07 11:08:28;;;;;;;6.00;1.23;;;;;;;;;;4951542;29;20045;-73
2022/02/07 11:11:15;;;;;;;5.45;1.10;;;;;;;;;;5010785;28;20037;-72
2022/02/07 11:16:50;;;;;;;5.07;1.23;;;;;;;;;;5019793;28;20022;-73
2022/02/07 11:19:21;;;;;;;7.85;1.45;;;;;;;;;;5013120;28;20034;-75
2022/02/07 11:22:11;;;;;;;5.68;1.25;;;;;;;;;;5010063;28;20029;-75
2022/02/07 11:27:35;;;;;;;7.63;1.30;;;;;;;;;;5012237;28;19916;-74
2022/02/07 11:30:01;;;;;;;9.05;1.60;;;;;;;;;;5017715;28;20418;-73
2022/02/07 11:32:54;;;;;;;7.18;1.17;;;;;;;;;;5013330;28;20503;-74
2022/02/07 11:35:23;;;;;;;7.10;1.23;;;;;;;;;;5010768;28;20056;-74
2022/02/07 11:37:53;;;;;;;6.00;1.20;;;;;;;;;;5012452;28;20030;-74
2022/02/07 11:40:18;;;;;;;;;;;;;;;;;;5011820;28;20022;-73
2022/02/07 11:43:03;;;;;;;5.93;1.40;;;;;;;;;;5011260;28;20279;-74
2022/02/07 11:45:29;;;;;;;4.97;1.52;;;;;;;;;;5007304;28;20265;-72
2022/02/07 11:47:56;;;;;;;15.15;1.80;;;;;;;;;;5011672;28;20026;-74
2022/02/07 11:50:21;;;;;;;8.70;1.77;;;;;;;;;;5011076;28;20556;-74
2022/02/07 11:52:49;;;;;;;9.98;1.73;;;;;;;;;;5011873;28;20168;-72
2022/02/07 11:55:19;;;;;;;7.78;1.58;;;;;;;;;;5011116;28;20087;-73
2022/02/07 11:57:44;;;;;;;;;;;;;;;;;;5011542;28;20032;-73
2022/02/07 12:00:11;;;;;;;6.72;1.23;;;;;;;;;;5010947;28;20284;-73
2022/02/07 12:02:37;;;;;;;8.98;1.67;;;;;;;;;;5003994;28;20013;-71
2022/02/07 12:05:02;;;;;;;5.15;1.30;;;;;;;;;;5009366;28;20038;-73
2022/02/07 12:07:35;;;;;;;6.75;1.38;;;;;;;;;;5011492;28;20404;-73
2022/02/07 12:10:05;;;;;;;7.38;1.65;;;;;;;;;;5010584;28;20444;-73
2022/02/07 12:12:30;;;;;;;;;;;;;;;;;;5011537;28;20106;-72
2022/02/07 12:14:58;;;;;;;6.30;1.30;;;;;;;;;;5009774;28;20067;-74
2022/02/07 12:17:43;;;;;;;4.85;1.25;;;;;;;;;;5008792;28;20044;-73
2022/02/07 12:20:09;;;;;;;3.97;1.25;;;;;;;;;;5008500;28;20538;-72
2022/02/07 12:23:07;;;;;;;8.73;1.40;;;;;;;;;;5010657;28;20044;-72
2022/02/07 12:25:36;;;;;;;5.88;1.20;;;;;;;;;;4932055;29;20529;-72
2022/02/07 12:28:04;;;;;;;7.22;1.13;;;;;;;;;;4943586;29;20064;-72
2022/02/07 12:30:31;;;;;;;8.30;1.45;;;;;;;;;;4937199;29;20035;-72
2022/02/07 12:33:02;;;;;;;6.57;1.35;;;;;;;;;;4950947;29;20526;-72
2022/02/07 12:35:27;;;;;;;6.07;1.42;;;;;;;;;;4951572;29;20162;-73
2022/02/07 12:37:52;;;;;;;3.17;1.20;;;;;;;;;;4939101;29;20435;-72
2022/02/07 12:40:18;;;;;;;6.10;1.58;;;;;;;;;;4937370;29;20585;-73
2022/02/07 12:42:44;;;;;;;10.70;1.83;;;;;;;;;;4913710;29;20068;-76
2022/02/07 12:45:09;;;;;;;7.63;2.15;;;;;;;;;;4939782;29;20035;-73
2022/02/07 12:47:36;;;;;;;6.63;1.27;;;;;;;;;;4933232;29;20074;-73
2022/02/07 12:50:22;;;;;;;7.68;1.95;;;;;;;;;;4932712;29;20039;-73
2022/02/07 12:52:47;;;;;;;7.13;1.73;;;;;;;;;;4927976;29;20569;-72
2022/02/07 12:55:14;;;;;;;5.25;1.33;;;;;;;;;;4942115;29;20144;-74
2022/02/07 12:57:40;;;;;;;7.32;1.80;;;;;;;;;;4916090;29;20160;-72
2022/02/07 13:00:07;;;;;;;7.80;1.67;;;;;;;;;;4951585;28;20031;-72
2022/02/07 13:02:32;;;;;;;7.00;1.48;;;;;;;;;;5010402;28;20095;-73
2022/02/07 13:04:57;;;;;;;7.05;1.70;;;;;;;;;;5008878;28;20018;-71
2022/02/07 13:07:25;;;;;;;6.50;1.80;;;;;;;;;;5008818;28;20135;-74
2022/02/07 13:09:55;;;;;;;6.60;1.70;;;;;;;;;;5010173;28;20038;-72
2022/02/07 13:14:57;;;;;;;4.35;1.38;;;;;;;;;;5010318;28;20462;-73
2022/02/07 13:17:27;;;;;;;6.18;1.70;;;;;;;;;;5009841;28;20025;-72
2022/02/07 13:19:53;;;;;;;10.13;2.50;;;;;;;;;;5010059;28;20516;-73
2022/02/07 13:22:21;;;;;;;7.45;1.75;;;;;;;;;;5009614;28;20034;-74
2022/02/07 13:24:47;;;;;;;7.38;2.08;;;;;;;;;;5012245;28;20022;-72
2022/02/07 13:27:14;;;;;;;8.15;2.20;;;;;;;;;;5012422;28;20484;-72
2022/02/07 13:29:45;;;;;;;4.78;1.67;;;;;;;;;;5012487;28;20033;-73
2022/02/07 13:32:11;;;;;;;8.32;2.05;;;;;;;;;;5013240;28;20021;-73
2022/02/07 13:34:37;;;;;;;8.07;2.30;;;;;;;;;;5014545;28;20393;-72
2022/02/07 13:37:15;;;;;;;7.03;2.80;;;;;;;;;;5013705;28;20033;-75
2022/02/07 13:39:52;;;;;;;3.92;1.50;;;;;;;;;;5012746;28;20053;-73
2022/02/07 13:42:17;;;;;;;8.50;1.75;;;;;;;;;;5012408;28;20068;-74
2022/02/07 13:44:42;;;;;;;10.88;2.25;;;;;;;;;;5012967;28;20057;-73
2022/02/07 13:47:08;;;;;;;7.03;1.95;;;;;;;;;;5012643;28;20110;-74
2022/02/07 13:49:33;;;;;;;8.75;2.05;;;;;;;;;;5012772;28;20045;-72
2022/02/07 13:51:58;;;;;;;5.32;2.15;;;;;;;;;;5012548;28;20534;-73
2022/02/07 13:54:27;;;;;;;6.53;1.77;;;;;;;;;;5013507;28;20323;-74
2022/02/07 13:56:56;;;;;;;6.18;1.73;;;;;;;;;;5014508;28;20068;-73
2022/02/07 13:59:22;;;;;;;8.55;2.25;;;;;;;;;;5014642;28;20034;-74
2022/02/07 14:01:49;;;;;;;6.68;1.77;;;;;;;;;;5014955;28;20117;-73
2022/02/07 14:04:15;;;;;;;7.93;2.20;;;;;;;;;;5015654;28;20022;-74
2022/02/07 14:06:45;;;;;;;6.85;1.83;;;;;;;;;;5013764;28;20040;-75
2022/02/07 14:09:11;;;;;;;7.75;2.20;;;;;;;;;;5017916;28;20341;-74
2022/02/07 14:11:37;;;;;;;11.65;2.17;;;;;;;;;;5013794;28;20026;-74
2022/02/07 14:14:02;;;;;;;9.20;1.95;;;;;;;;;;5013703;28;20136;-74
2022/02/07 14:16:28;;;;;;;6.20;1.85;;;;;;;;;;5012904;28;20045;-74
2022/02/07 14:18:53;;;;;;;7.55;2.08;;;;;;;;;;5013466;28;20445;-75
2022/02/07 14:21:20;;;;;;;6.20;1.58;;;;;;;;;;5012316;28;20059;-73
2022/02/07 14:23:46;;;;;;;9.15;1.92;;;;;;;;;;5013414;28;20112;-75
2022/02/07 14:26:16;;;;;;;9.70;2.53;;;;;;;;;;5013858;28;20459;-72
2022/02/07 14:28:41;;;;;;;6.80;1.95;;;;;;;;;;5013206;28;20072;-74
2022/02/07 14:31:08;;;;;;;8.20;1.73;;;;;;;;;;5015600;28;20030;-72
2022/02/07 14:33:34;;;;;;;7.55;1.48;;;;;;;;;;5008588;28;20033;-73
2022/02/07 14:35:59;;;;;;;6.15;1.90;;;;;;;;;;5015094;28;20022;-73
2022/02/07 14:38:24;;;;;;;6.38;1.70;;;;;;;;;;5013594;28;20021;-72
2022/02/07 14:40:50;;;;;;;10.05;2.13;;;;;;;;;;5013956;28;20479;-74
2022/02/07 14:43:20;;;;;;;8.00;2.30;;;;;;;;;;5010416;28;20025;-74
2022/02/07 14:48:30;;;;;;;5.18;2.10;;;;;;;;;;5011220;28;20114;-73
2022/02/07 14:50:55;;;;;;;6.50;1.60;;;;;;;;;;5015857;28;20191;-76
2022/02/07 14:53:22;;;;;;;7.13;1.85;;;;;;;;;;5010981;28;20053;-74
2022/02/07 14:55:47;;;;;;;6.38;1.80;;;;;;;;;;5010306;28;20021;-73
2022/02/07 14:58:12;;;;;;;7.93;1.95;;;;;;;;;;5011982;28;20072;-73
2022/02/07 15:00:38;;;;;;;5.25;1.73;;;;;;;;;;5008574;28;20412;-73
2022/02/07 15:03:05;;;;;;;7.35;2.10;;;;;;;;;;5012905;28;20195;-73
2022/02/07 15:05:34;;;;;;;8.40;2.30;;;;;;;;;;5013687;28;20600;-74
2022/02/07 15:08:01;;;;;;;4.57;1.77;;;;;;;;;;5014643;28;20017;-75
2022/02/07 15:10:28;;;;;;;4.97;2.08;;;;;;;;;;5017286;28;20089;-75
2022/02/07 15:12:54;;;;;;;8.20;1.73;;;;;;;;;;5017216;28;20030;-76
2022/02/07 15:15:19;;;;;;;10.30;2.05;;;;;;;;;;5014120;28;20389;-75
2022/02/07 15:17:45;;;;;;;5.22;1.70;;;;;;;;;;5017004;28;20104;-74
2022/02/07 15:20:12;;;;;;;5.03;1.77;;;;;;;;;;5012979;28;20033;-74
2022/02/07 15:22:40;;;;;;;5.18;1.55;;;;;;;;;;5014180;28;20068;-74
2022/02/07 15:25:06;;;;;;;4.55;1.77;;;;;;;;;;5011070;28;20018;-76
2022/02/07 15:27:32;;;;;;;6.72;2.08;;;;;;;;;;5014726;28;20381;-75
2022/02/07 15:29:57;;;;;;;9.25;2.40;;;;;;;;;;5014203;28;20129;-75
2022/02/07 15:32:29;;;;;;;6.55;2.10;;;;;;;;;;5012200;28;20081;-75
2022/02/07 15:34:56;;;;;;;6.20;1.95;;;;;;;;;;5007394;28;20029;-74
2022/02/07 15:37:22;;;;;;;8.05;1.90;;;;;;;;;;5012520;28;20041;-74
2022/02/07 15:39:47;;;;;;;8.80;2.00;;;;;;;;;;5011320;28;20025;-77
2022/02/07 15:42:13;;;;;;;8.88;2.28;;;;;;;;;;5014122;28;20053;-76
2022/02/07 15:44:38;;;;;;;6.60;2.10;;;;;;;;;;5014268;28;20037;-77
2022/02/07 15:47:04;;;;;;;6.60;1.88;;;;;;;;;;5013349;28;20104;-78
2022/02/07 15:49:29;;;;;;;9.50;2.10;;;;;;;;;;5013481;28;20041;-77
2022/02/07 15:51:55;;;;;;;8.27;1.98;;;;;;;;;;5012775;28;20034;-76
2022/02/07 15:54:20;;;;;;;7.32;1.98;;;;;;;;;;5018401;28;20062;-76
2022/02/07 15:56:45;;;;;;;7.30;2.10;;;;;;;;;;5012853;28;20018;-76
2022/02/07 15:59:10;;;;;;;5.75;2.22;;;;;;;;;;5012811;28;20473;-75
2022/02/07 16:01:36;;;;;;;5.60;1.85;;;;;;;;;;5012003;28;20026;-77
2022/02/07 16:04:01;;;;;;;9.13;1.98;;;;;;;;;;5010781;28;20022;-73
2022/02/07 16:06:26;;;;;;;10.80;2.00;;;;;;;;;;5010789;28;20255;-75
2022/02/07 16:08:52;;;;;;;4.40;2.05;;;;;;;;;;5009912;28;20034;-77
2022/02/07 16:11:17;;;;;;;6.93;2.38;;;;;;;;;;5010594;28;20141;-73
2022/02/07 16:13:54;;;;;;;7.07;2.00;;;;;;;;;;5007539;28;20030;-74
2022/02/07 16:16:20;;;;;;;8.60;1.98;;;;;;;;;;5005477;28;20052;-73
2022/02/07 16:18:48;;;;;;;5.75;1.65;;;;;;;;;;5003174;28;20105;-75
2022/02/07 16:21:13;;;;;;;8.00;1.83;;;;;;;;;;5002433;28;20022;-72
2022/02/07 16:23:38;;;;;;;6.45;1.70;;;;;;;;;;5003595;28;20030;-74
2022/02/07 16:26:07;;;;;;;7.78;1.80;;;;;;;;;;5003627;28;20042;-72
2022/02/07 16:28:34;;;;;;;10.27;2.13;;;;;;;;;;5001826;28;20088;-73
2022/02/07 16:30:59;;;;;;;14.82;2.03;;;;;;;;;;5006119;28;20075;-74
2022/02/07 16:33:24;;;;;;;6.13;1.80;;;;;;;;;;5006570;28;20031;-74
2022/02/07 16:35:50;;;;;;;7.10;1.90;;;;;;;;;;5002309;28;20045;-74
2022/02/07 16:38:16;;;;;;;7.05;1.73;;;;;;;;;;5006180;28;20093;-72
2022/02/07 16:40:42;;;;;;;6.85;1.75;;;;;;;;;;5006628;28;20152;-73
2022/02/07 16:43:08;;;;;;;8.48;2.35;;;;;;;;;;5001362;28;20053;-72
2022/02/07 16:48:09;;;;;;;5.18;1.90;;;;;;;;;;4998800;28;20052;-73
2022/02/07 16:50:34;;;;;;;9.35;2.20;;;;;;;;;;5005776;28;20468;-75
2022/02/07 16:52:59;;;;;;;5.03;1.60;;;;;;;;;;5004471;28;20121;-75
2022/02/07 16:55:25;;;;;;;6.43;1.60;;;;;;;;;;5005361;28;20017;-75
2022/02/07 16:57:50;;;;;;;6.55;2.00;;;;;;;;;;5000808;28;20018;-73